sensor_id;sensor_type;location;lat;lon;timestamp;P1;durP1;ratioP1;P2;durP2;ratioP2
57301;SDS011;43149;50.974;18.224;2023-11-19T00:06:32;56.80;;;30.50;;
57301;SDS011;43149;50.974;18.224;2023-11-19T00:16:15;65.40;;;38.00;;
57301;SDS011;43149;50.974;18.224;2023-11-19T00:33:17;76.60;;;37.50;;
57301;SDS011;43149;50.974;18.224;2023-11-19T00:43:00;75.90;;;41.40;;
57301;SDS011;43149;50.974;18.224;2023-11-19T00:52:43;80.70;;;40.40;;
57301;SDS011;43149;50.974;18.224;2023-11-19T01:02:26;67.10;;;38.60;;
57301;SDS011;43149;50.974;18.224;2023-11-19T01:12:08;64.80;;;37.90;;
57301;SDS011;43149;50.974;18.224;2023-11-19T01:21:53;51.20;;;29.50;;
57301;SDS011;43149;50.974;18.224;2023-11-19T01:31:41;59.10;;;32.50;;
57301;SDS011;43149;50.974;18.224;2023-11-19T01:41:24;58.10;;;30.80;;
57301;SDS011;43149;50.974;18.224;2023-11-19T01:51:11;41.60;;;26.40;;
57301;SDS011;43149;50.974;18.224;2023-11-19T02:00:56;45.90;;;27.80;;
57301;SDS011;43149;50.974;18.224;2023-11-19T02:10:40;56.80;;;30.50;;
57301;SDS011;43149;50.974;18.224;2023-11-19T02:20:45;53.10;;;28.40;;
57301;SDS011;43149;50.974;18.224;2023-11-19T02:30:30;51.50;;;28.30;;
57301;SDS011;43149;50.974;18.224;2023-11-19T02:40:15;60.60;;;32.50;;
57301;SDS011;43149;50.974;18.224;2023-11-19T02:50:10;52.70;;;26.70;;
57301;SDS011;43149;50.974;18.224;2023-11-19T03:00:22;58.70;;;29.50;;
57301;SDS011;43149;50.974;18.224;2023-11-19T03:10:35;40.30;;;27.20;;
57301;SDS011;43149;50.974;18.224;2023-11-19T03:20:19;60.60;;;29.70;;
57301;SDS011;43149;50.974;18.224;2023-11-19T03:30:07;52.40;;;28.80;;
57301;SDS011;43149;50.974;18.224;2023-11-19T03:39:58;46.80;;;26.80;;
57301;SDS011;43149;50.974;18.224;2023-11-19T03:49:48;28.40;;;18.10;;
57301;SDS011;43149;50.974;18.224;2023-11-19T03:59:36;52.60;;;25.00;;
57301;SDS011;43149;50.974;18.224;2023-11-19T04:09:20;58.90;;;29.10;;
57301;SDS011;43149;50.974;18.224;2023-11-19T04:19:04;50.70;;;27.00;;
57301;SDS011;43149;50.974;18.224;2023-11-19T04:28:47;25.50;;;16.50;;
57301;SDS011;43149;50.974;18.224;2023-11-19T04:38:33;47.20;;;25.80;;
57301;SDS011;43149;50.974;18.224;2023-11-19T04:48:16;37.70;;;21.20;;
57301;SDS011;43149;50.974;18.224;2023-11-19T04:57:59;47.40;;;24.80;;
57301;SDS011;43149;50.974;18.224;2023-11-19T05:07:43;52.70;;;28.30;;
57301;SDS011;43149;50.974;18.224;2023-11-19T05:17:26;47.10;;;24.10;;
57301;SDS011;43149;50.974;18.224;2023-11-19T05:27:09;52.80;;;25.30;;
57301;SDS011;43149;50.974;18.224;2023-11-19T05:36:56;57.00;;;27.30;;
57301;SDS011;43149;50.974;18.224;2023-11-19T05:46:40;57.00;;;28.90;;
57301;SDS011;43149;50.974;18.224;2023-11-19T05:56:32;45.90;;;28.00;;
57301;SDS011;43149;50.974;18.224;2023-11-19T06:06:20;49.70;;;24.90;;
57301;SDS011;43149;50.974;18.224;2023-11-19T06:16:05;32.10;;;10.90;;
57301;SDS011;43149;50.974;18.224;2023-11-19T06:25:49;34.00;;;19.30;;
57301;SDS011;43149;50.974;18.224;2023-11-19T06:35:33;43.20;;;23.10;;
57301;SDS011;43149;50.974;18.224;2023-11-19T06:45:21;43.10;;;20.70;;
57301;SDS011;43149;50.974;18.224;2023-11-19T06:55:06;38.50;;;19.80;;
57301;SDS011;43149;50.974;18.224;2023-11-19T07:04:50;43.30;;;20.90;;
57301;SDS011;43149;50.974;18.224;2023-11-19T07:14:34;49.40;;;22.60;;
57301;SDS011;43149;50.974;18.224;2023-11-19T07:24:20;42.20;;;20.10;;
57301;SDS011;43149;50.974;18.224;2023-11-19T07:34:10;31.10;;;11.40;;
57301;SDS011;43149;50.974;18.224;2023-11-19T07:43:56;49.30;;;24.00;;
57301;SDS011;43149;50.974;18.224;2023-11-19T08:00:58;42.00;;;22.70;;
57301;SDS011;43149;50.974;18.224;2023-11-19T08:10:41;48.00;;;21.40;;
57301;SDS011;43149;50.974;18.224;2023-11-19T08:20:27;40.90;;;18.70;;
57301;SDS011;43149;50.974;18.224;2023-11-19T08:30:10;21.10;;;13.00;;
57301;SDS011;43149;50.974;18.224;2023-11-19T08:39:54;43.80;;;19.60;;
57301;SDS011;43149;50.974;18.224;2023-11-19T08:49:44;39.50;;;18.80;;
57301;SDS011;43149;50.974;18.224;2023-11-19T08:59:28;50.50;;;18.90;;
57301;SDS011;43149;50.974;18.224;2023-11-19T09:09:13;31.50;;;16.50;;
57301;SDS011;43149;50.974;18.224;2023-11-19T09:18:57;24.00;;;13.80;;
57301;SDS011;43149;50.974;18.224;2023-11-19T09:28:42;25.40;;;16.20;;
57301;SDS011;43149;50.974;18.224;2023-11-19T09:38:32;33.90;;;17.20;;
57301;SDS011;43149;50.974;18.224;2023-11-19T09:48:16;36.10;;;17.10;;
57301;SDS011;43149;50.974;18.224;2023-11-19T09:58:01;36.40;;;17.10;;
57301;SDS011;43149;50.974;18.224;2023-11-19T10:07:45;27.30;;;13.80;;
57301;SDS011;43149;50.974;18.224;2023-11-19T10:17:32;18.20;;;11.70;;
57301;SDS011;43149;50.974;18.224;2023-11-19T10:27:18;29.80;;;17.10;;
57301;SDS011;43149;50.974;18.224;2023-11-19T10:44:42;41.20;;;16.40;;
57301;SDS011;43149;50.974;18.224;2023-11-19T10:54:26;30.70;;;15.20;;
57301;SDS011;43149;50.974;18.224;2023-11-19T11:04:14;32.90;;;8.90;;
57301;SDS011;43149;50.974;18.224;2023-11-19T11:14:04;26.30;;;12.50;;
57301;SDS011;43149;50.974;18.224;2023-11-19T11:34:33;32.60;;;14.00;;
57301;SDS011;43149;50.974;18.224;2023-11-19T11:44:58;11.60;;;7.20;;
57301;SDS011;43149;50.974;18.224;2023-11-19T11:54:44;25.60;;;14.90;;
57301;SDS011;43149;50.974;18.224;2023-11-19T12:04:31;24.30;;;11.80;;
57301;SDS011;43149;50.974;18.224;2023-11-19T12:24:54;39.20;;;10.50;;
57301;SDS011;43149;50.974;18.224;2023-11-19T12:34:45;15.00;;;8.40;;
57301;SDS011;43149;50.974;18.224;2023-11-19T12:44:27;20.10;;;9.80;;
57301;SDS011;43149;50.974;18.224;2023-11-19T12:54:32;16.30;;;8.80;;
57301;SDS011;43149;50.974;18.224;2023-11-19T13:04:21;39.90;;;15.50;;
57301;SDS011;43149;50.974;18.224;2023-11-19T13:14:22;22.00;;;7.80;;
57301;SDS011;43149;50.974;18.224;2023-11-19T13:24:07;23.30;;;10.50;;
57301;SDS011;43149;50.974;18.224;2023-11-19T13:33:51;31.90;;;10.00;;
57301;SDS011;43149;50.974;18.224;2023-11-19T13:43:36;14.00;;;8.70;;
57301;SDS011;43149;50.974;18.224;2023-11-19T13:53:21;18.40;;;7.40;;
57301;SDS011;43149;50.974;18.224;2023-11-19T14:03:07;8.20;;;5.50;;
57301;SDS011;43149;50.974;18.224;2023-11-19T14:12:52;9.90;;;6.90;;
57301;SDS011;43149;50.974;18.224;2023-11-19T14:22:43;20.60;;;10.40;;
57301;SDS011;43149;50.974;18.224;2023-11-19T14:32:31;25.40;;;10.00;;
57301;SDS011;43149;50.974;18.224;2023-11-19T14:42:16;9.00;;;5.50;;
57301;SDS011;43149;50.974;18.224;2023-11-19T14:52:00;9.80;;;5.40;;
57301;SDS011;43149;50.974;18.224;2023-11-19T15:01:46;13.90;;;8.00;;
57301;SDS011;43149;50.974;18.224;2023-11-19T15:11:29;31.40;;;10.00;;
57301;SDS011;43149;50.974;18.224;2023-11-19T15:21:27;9.10;;;5.30;;
57301;SDS011;43149;50.974;18.224;2023-11-19T15:31:13;25.90;;;9.50;;
57301;SDS011;43149;50.974;18.224;2023-11-19T15:40:59;17.70;;;10.60;;
57301;SDS011;43149;50.974;18.224;2023-11-19T15:50:43;28.90;;;14.90;;
57301;SDS011;43149;50.974;18.224;2023-11-19T16:00:27;12.40;;;7.20;;
57301;SDS011;43149;50.974;18.224;2023-11-19T16:10:11;16.40;;;6.10;;
57301;SDS011;43149;50.974;18.224;2023-11-19T16:19:56;12.10;;;6.40;;
57301;SDS011;43149;50.974;18.224;2023-11-19T16:29:44;18.30;;;7.70;;
57301;SDS011;43149;50.974;18.224;2023-11-19T16:39:35;21.80;;;9.50;;
57301;SDS011;43149;50.974;18.224;2023-11-19T16:49:19;17.90;;;8.50;;
57301;SDS011;43149;50.974;18.224;2023-11-19T16:59:04;10.10;;;6.00;;
57301;SDS011;43149;50.974;18.224;2023-11-19T17:08:49;48.20;;;23.80;;
57301;SDS011;43149;50.974;18.224;2023-11-19T17:18:33;12.90;;;6.70;;
57301;SDS011;43149;50.974;18.224;2023-11-19T17:28:18;18.10;;;7.50;;
57301;SDS011;43149;50.974;18.224;2023-11-19T17:38:04;17.40;;;5.60;;
57301;SDS011;43149;50.974;18.224;2023-11-19T17:47:50;11.80;;;6.50;;
57301;SDS011;43149;50.974;18.224;2023-11-19T17:57:41;9.60;;;6.20;;
57301;SDS011;43149;50.974;18.224;2023-11-19T18:07:39;16.10;;;5.20;;
57301;SDS011;43149;50.974;18.224;2023-11-19T18:17:29;14.80;;;8.30;;
57301;SDS011;43149;50.974;18.224;2023-11-19T18:27:15;14.40;;;6.50;;
57301;SDS011;43149;50.974;18.224;2023-11-19T18:37:05;7.00;;;5.30;;
57301;SDS011;43149;50.974;18.224;2023-11-19T18:46:50;16.70;;;8.20;;
57301;SDS011;43149;50.974;18.224;2023-11-19T18:56:35;26.00;;;9.90;;
57301;SDS011;43149;50.974;18.224;2023-11-19T19:06:23;11.20;;;6.10;;
57301;SDS011;43149;50.974;18.224;2023-11-19T19:16:12;15.20;;;4.90;;
57301;SDS011;43149;50.974;18.224;2023-11-19T19:25:57;23.80;;;7.50;;
57301;SDS011;43149;50.974;18.224;2023-11-19T19:35:40;15.80;;;6.40;;
57301;SDS011;43149;50.974;18.224;2023-11-19T19:45:29;11.10;;;5.60;;
57301;SDS011;43149;50.974;18.224;2023-11-19T19:55:15;8.00;;;5.40;;
57301;SDS011;43149;50.974;18.224;2023-11-19T20:05:06;16.20;;;5.40;;
57301;SDS011;43149;50.974;18.224;2023-11-19T20:15:05;13.10;;;6.80;;
57301;SDS011;43149;50.974;18.224;2023-11-19T20:25:09;7.90;;;4.40;;
57301;SDS011;43149;50.974;18.224;2023-11-19T20:34:54;5.70;;;5.20;;
57301;SDS011;43149;50.974;18.224;2023-11-19T20:44:37;23.50;;;6.10;;
57301;SDS011;43149;50.974;18.224;2023-11-19T20:54:22;20.60;;;8.10;;
57301;SDS011;43149;50.974;18.224;2023-11-19T21:04:10;12.50;;;6.70;;
57301;SDS011;43149;50.974;18.224;2023-11-19T21:13:57;22.70;;;9.00;;
57301;SDS011;43149;50.974;18.224;2023-11-19T21:23:43;47.30;;;14.70;;
57301;SDS011;43149;50.974;18.224;2023-11-19T21:33:26;22.20;;;7.30;;
57301;SDS011;43149;50.974;18.224;2023-11-19T21:43:12;31.30;;;12.60;;
57301;SDS011;43149;50.974;18.224;2023-11-19T22:00:15;14.10;;;6.70;;
57301;SDS011;43149;50.974;18.224;2023-11-19T22:10:01;12.40;;;8.00;;
57301;SDS011;43149;50.974;18.224;2023-11-19T22:19:49;16.50;;;6.30;;
57301;SDS011;43149;50.974;18.224;2023-11-19T22:29:35;5.10;;;3.90;;
57301;SDS011;43149;50.974;18.224;2023-11-19T22:39:20;11.00;;;4.50;;
57301;SDS011;43149;50.974;18.224;2023-11-19T22:49:03;25.50;;;8.00;;
57301;SDS011;43149;50.974;18.224;2023-11-19T22:58:50;9.50;;;5.50;;
57301;SDS011;43149;50.974;18.224;2023-11-19T23:06:08;65.90;;;23.20;;
57301;SDS011;43149;50.974;18.224;2023-11-19T23:15:53;9.50;;;3.00;;
57301;SDS011;43149;50.974;18.224;2023-11-19T23:25:36;22.50;;;6.40;;
57301;SDS011;43149;50.974;18.224;2023-11-19T23:35:18;20.40;;;5.70;;
57301;SDS011;43149;50.974;18.224;2023-11-19T23:45:01;8.90;;;5.40;;
57301;SDS011;43149;50.974;18.224;2023-11-19T23:54:45;12.40;;;4.80;;
